Time;durP1;ratioP1;P1;durP2;ratioP2;P2;SDS_P1;SDS_P2;PMS_P1;PMS_P2;Temp;Humidity;BMP_temperature;BMP_pressure;BME280_temperature;BME280_humidity;BME280_pressure;Samples;Min_cycle;Max_cycle;Signal;HPM_P1;HPM_P2
2023/10/03 00:00:56;;;;;;;33.38;14.13;;;17.30;99.90;;;16.47;100.00;101109.88;6138804;23;20091;-80
2023/10/03 00:03:23;;;;;;;35.40;15.68;;;17.30;99.90;;;16.44;100.00;101109.25;6124400;23;20008;-79
2023/10/03 00:05:51;;;;;;;31.77;15.30;;;17.30;99.90;;;16.40;100.00;101100.59;6111002;23;20055;-80
2023/10/03 00:08:18;;;;;;;27.08;14.13;;;17.20;99.90;;;16.35;100.00;101095.59;6129475;23;20039;-79
2023/10/03 00:10:52;;;;;;;30.35;14.45;;;17.20;99.90;;;16.30;100.00;101092.38;6107450;23;20013;-79
2023/10/03 00:13:19;;;;;;;33.30;15.55;;;17.20;99.90;;;16.26;100.00;101077.56;6109991;23;20024;-80
2023/10/03 00:15:45;;;;;;;33.05;14.77;;;17.10;99.90;;;16.22;100.00;101072.56;6121636;23;20016;-79
2023/10/03 00:18:20;;;;;;;36.15;16.67;;;17.10;99.90;;;16.19;100.00;101070.97;6079667;23;20447;-79
2023/10/03 00:20:47;;;;;;;34.17;16.25;;;17.00;99.90;;;16.16;100.00;101071.16;6083959;23;20447;-80
2023/10/03 00:23:12;;;;;;;34.55;16.42;;;17.00;99.90;;;16.12;100.00;101072.31;6130865;23;20108;-79
2023/10/03 00:25:44;;;;;;;33.60;16.13;;;17.00;99.90;;;16.11;100.00;101073.25;6154648;23;20323;-80
2023/10/03 00:28:10;;;;;;;33.08;16.50;;;17.00;99.90;;;16.08;100.00;101063.69;6150256;23;20099;-79
2023/10/03 00:30:40;;;;;;;34.35;17.20;;;17.00;99.90;;;16.05;100.00;101066.56;6097268;23;20004;-80
2023/10/03 00:33:10;;;;;;;40.90;17.45;;;16.90;99.90;;;16.04;100.00;101061.31;6146115;23;20004;-79
2023/10/03 00:35:35;;;;;;;36.75;17.20;;;16.90;99.90;;;15.99;100.00;101059.81;6093286;23;20012;-79
2023/10/03 00:38:05;;;;;;;35.80;17.90;;;16.90;99.90;;;15.97;100.00;101052.91;6107740;23;20017;-79
2023/10/03 00:40:31;;;;;;;40.00;19.05;;;16.90;99.90;;;15.94;100.00;101053.13;6096499;23;20627;-79
2023/10/03 00:43:03;;;;;;;39.05;18.48;;;16.90;99.90;;;15.92;100.00;101047.03;6141996;23;20028;-79
2023/10/03 00:45:30;;;;;;;43.30;19.48;;;16.80;99.90;;;15.91;100.00;101053.28;6148102;23;20008;-79
2023/10/03 00:48:00;;;;;;;39.88;19.70;;;16.80;99.90;;;15.86;100.00;101042.97;6145010;23;20043;-78
2023/10/03 00:50:28;;;;;;;41.50;19.10;;;16.80;99.90;;;15.85;100.00;101040.41;6124383;23;20005;-79
2023/10/03 00:52:58;;;;;;;42.47;19.33;;;16.80;99.90;;;15.83;100.00;101040.53;6104042;23;20370;-79
2023/10/03 00:55:26;;;;;;;35.35;18.92;;;16.70;99.90;;;15.82;100.00;101043.25;6137813;23;20039;-79
2023/10/03 01:00:44;;;;;;;37.50;18.60;;;16.70;99.90;;;15.81;100.00;101036.22;6172966;23;20009;-79
2023/10/03 01:03:42;;;;;;;36.25;18.02;;;16.70;99.90;;;15.82;100.00;101024.69;6122617;23;20009;-79
2023/10/03 01:06:17;;;;;;;32.50;16.92;;;16.70;99.90;;;15.79;100.00;101026.56;6141222;23;20488;-79
2023/10/03 01:08:49;;;;;;;34.97;17.50;;;16.70;99.90;;;15.79;100.00;101021.25;6153430;23;20080;-79
2023/10/03 01:11:22;;;;;;;33.05;16.83;;;16.70;99.90;;;15.77;100.00;101009.88;6123404;23;20004;-79
2023/10/03 01:13:56;;;;;;;31.33;17.73;;;16.60;99.90;;;15.77;100.00;101012.53;6116916;23;20025;-79
2023/10/03 01:16:32;;;;;;;33.83;17.23;;;16.60;99.90;;;15.75;100.00;101006.47;6172130;23;20004;-79
2023/10/03 01:19:02;;;;;;;33.55;17.52;;;16.60;99.90;;;15.72;100.00;101003.16;6179995;23;20078;-79
2023/10/03 01:21:32;;;;;;;31.05;16.10;;;16.60;99.90;;;15.71;100.00;100993.47;6148560;23;20017;-79
2023/10/03 01:23:59;;;;;;;31.67;16.73;;;16.50;99.90;;;15.68;100.00;100994.53;6149359;23;20016;-79
2023/10/03 01:26:25;;;;;;;37.72;17.67;;;16.60;99.90;;;15.67;100.00;100987.50;6128301;23;20079;-79
2023/10/03 01:29:00;;;;;;;39.40;18.40;;;16.50;99.90;;;15.64;100.00;100979.75;6147843;23;20013;-78
2023/10/03 01:31:27;;;;;;;37.25;18.02;;;16.50;99.90;;;15.57;100.00;100970.44;6114985;23;20020;-79
2023/10/03 01:33:52;;;;;;;36.25;17.63;;;16.40;99.90;;;15.49;100.00;100967.44;6084976;23;20023;-79
2023/10/03 01:36:21;;;;;;;40.45;19.17;;;16.40;99.90;;;15.42;100.00;100956.38;6131177;23;20458;-79
2023/10/03 01:38:50;;;;;;;33.95;17.25;;;16.40;99.90;;;15.39;100.00;100956.53;6090985;23;20276;-79
2023/10/03 01:41:17;;;;;;;33.83;17.70;;;16.30;99.90;;;15.34;100.00;100943.56;6158269;23;20005;-79
2023/10/03 01:43:43;;;;;;;38.28;17.98;;;16.30;99.90;;;15.25;100.00;100936.22;6150466;23;20078;-78
2023/10/03 01:46:16;;;;;;;37.42;16.52;;;16.20;99.90;;;15.19;100.00;100933.94;6182932;23;20784;-78
2023/10/03 01:48:42;;;;;;;34.47;16.27;;;16.10;99.90;;;15.14;100.00;100925.38;6136937;23;20975;-79
2023/10/03 01:51:09;;;;;;;33.83;16.40;;;16.10;99.90;;;15.11;100.00;100917.63;6121637;23;20020;-78
2023/10/03 01:53:36;;;;;;;31.73;16.60;;;16.10;99.90;;;15.08;100.00;100912.53;6088952;23;20009;-79
2023/10/03 01:56:03;;;;;;;37.80;16.27;;;16.10;99.90;;;15.03;100.00;100906.66;6149691;23;20032;-79
2023/10/03 01:58:34;;;;;;;35.63;16.83;;;16.00;99.90;;;15.02;100.00;100908.47;6111450;23;20027;-79
2023/10/03 02:01:00;;;;;;;37.50;17.25;;;16.00;99.90;;;15.02;100.00;100902.31;6157377;23;20091;-78
2023/10/03 02:03:28;;;;;;;39.75;16.98;;;16.00;99.90;;;15.01;100.00;100898.81;6133994;23;20087;-78
2023/10/03 02:05:54;;;;;;;30.67;16.75;;;15.90;99.90;;;15.00;100.00;100891.78;6105164;23;20019;-79
2023/10/03 02:08:26;;;;;;;32.17;15.93;;;15.90;99.90;;;15.02;100.00;100889.06;6142090;23;20005;-80
2023/10/03 02:10:52;;;;;;;35.47;16.92;;;16.00;99.90;;;15.04;100.00;100887.16;6128742;23;20096;-79
2023/10/03 02:13:21;;;;;;;33.75;16.55;;;16.00;99.90;;;15.06;100.00;100875.50;6130333;23;20016;-78
2023/10/03 02:15:51;;;;;;;42.53;16.98;;;16.00;99.90;;;15.08;100.00;100864.81;6131800;23;20013;-79
2023/10/03 02:18:19;;;;;;;34.22;16.63;;;16.00;99.90;;;15.09;100.00;100859.38;6120371;23;20640;-80
2023/10/03 02:20:53;;;;;;;33.28;16.08;;;16.00;99.90;;;15.11;100.00;100856.66;6152171;23;20015;-78
2023/10/03 02:23:24;;;;;;;30.35;15.27;;;16.00;99.90;;;15.13;100.00;100852.09;6126051;23;20012;-78
2023/10/03 02:26:04;;;;;;;35.90;15.55;;;16.10;99.90;;;15.16;100.00;100849.22;6120016;23;20043;-79
2023/10/03 02:28:31;;;;;;;35.67;15.40;;;16.10;99.90;;;15.18;100.00;100844.69;6135648;23;20009;-79
2023/10/03 02:30:57;;;;;;;33.55;15.82;;;16.10;99.90;;;15.17;100.00;100843.00;6134678;23;20745;-79
2023/10/03 02:33:30;;;;;;;31.83;15.50;;;16.10;99.90;;;15.15;100.00;100835.13;6105445;23;20448;-79
2023/10/03 02:35:56;;;;;;;32.83;15.57;;;16.00;99.90;;;15.14;100.00;100825.47;6112337;23;20277;-79
2023/10/03 02:38:29;;;;;;;30.25;15.70;;;16.00;99.90;;;15.12;100.00;100824.72;6189572;23;20029;-79
2023/10/03 02:40:59;;;;;;;31.65;14.63;;;16.00;99.90;;;15.10;100.00;100823.13;6124169;23;20004;-79
2023/10/03 02:43:28;;;;;;;31.80;15.43;;;16.00;99.90;;;15.08;100.00;100825.88;6085470;23;20052;-78
2023/10/03 02:45:54;;;;;;;30.65;15.23;;;16.00;99.90;;;15.08;100.00;100812.63;6097821;23;20019;-78
2023/10/03 02:48:28;;;;;;;36.55;15.73;;;16.00;99.90;;;15.07;100.00;100821.50;6155377;23;20072;-79
2023/10/03 02:50:53;;;;;;;29.52;14.65;;;16.00;99.90;;;15.10;100.00;100816.03;6143770;23;20013;-79
2023/10/03 02:53:20;;;;;;;34.88;14.90;;;16.00;99.90;;;15.12;100.00;100821.22;6128706;23;20060;-79
2023/10/03 02:55:51;;;;;;;34.53;15.43;;;16.00;99.90;;;15.12;100.00;100831.84;6081725;23;20020;-78
2023/10/03 02:58:20;;;;;;;26.45;13.45;;;16.00;99.90;;;15.11;100.00;100832.78;6184969;23;20403;-79
2023/10/03 03:00:57;;;;;;;24.98;13.52;;;16.00;99.90;;;15.09;100.00;100832.03;6154873;23;20021;-78
2023/10/03 03:03:30;;;;;;;27.40;13.95;;;16.00;99.90;;;15.06;100.00;100822.47;6123182;23;20019;-78
2023/10/03 03:06:04;;;;;;;25.63;12.40;;;15.90;99.90;;;15.04;100.00;100818.22;6064196;23;20358;-78
2023/10/03 03:08:31;;;;;;;24.98;12.15;;;15.90;99.90;;;14.97;100.00;100807.16;6083803;23;20071;-78
2023/10/03 03:11:01;;;;;;;22.17;12.10;;;15.80;99.90;;;14.93;100.00;100798.53;6130664;23;20094;-78
2023/10/03 03:13:32;;;;;;;28.98;14.32;;;15.80;99.90;;;14.88;100.00;100795.34;6122210;23;20079;-79
2023/10/03 03:16:03;;;;;;;32.45;14.48;;;15.80;99.90;;;14.84;100.00;100777.91;6152134;23;20091;-78
2023/10/03 03:18:41;;;;;;;35.13;16.60;;;15.80;99.90;;;14.83;100.00;100778.00;6110209;23;20079;-79
2023/10/03 03:21:15;;;;;;;32.28;15.85;;;15.70;99.90;;;14.82;100.00;100769.22;6149452;23;20032;-78
2023/10/03 03:23:43;;;;;;;41.15;16.02;;;15.70;99.90;;;14.83;100.00;100762.09;6102760;23;20019;-78
2023/10/03 03:26:20;;;;;;;39.33;16.85;;;15.70;99.90;;;14.84;100.00;100758.47;6118561;23;20019;-79
2023/10/03 03:28:50;;;;;;;34.50;15.50;;;15.70;99.90;;;14.84;100.00;100759.34;6154672;23;20004;-79
2023/10/03 03:31:26;;;;;;;31.02;15.65;;;15.70;99.90;;;14.86;100.00;100757.47;6167135;23;20009;-79
2023/10/03 03:33:57;;;;;;;37.03;15.93;;;15.80;99.90;;;14.88;100.00;100754.69;6134338;23;20005;-78
2023/10/03 03:36:37;;;;;;;39.47;15.70;;;15.80;99.90;;;14.89;100.00;100751.94;6093910;23;20032;-78
2023/10/03 03:39:16;;;;;;;30.67;14.30;;;15.80;99.90;;;14.89;100.00;100741.34;6065803;23;20423;-78
2023/10/03 03:41:43;;;;;;;35.88;15.25;;;15.80;99.90;;;14.90;100.00;100728.94;6127621;23;20489;-79
2023/10/03 03:44:12;;;;;;;31.15;15.00;;;15.80;99.90;;;14.91;100.00;100723.53;6122686;23;20637;-79
2023/10/03 03:46:49;;;;;;;32.58;14.18;;;15.80;99.90;;;14.93;100.00;100705.75;6158211;23;20155;-79
2023/10/03 03:49:18;;;;;;;40.70;15.65;;;15.80;99.90;;;14.92;100.00;100705.81;6163763;23;20525;-78
2023/10/03 03:51:44;;;;;;;38.33;16.08;;;15.80;99.90;;;14.93;100.00;100700.44;6148603;23;20614;-78
2023/10/03 03:54:12;;;;;;;36.90;16.45;;;15.80;99.90;;;14.94;100.00;100693.31;6115036;23;20021;-79
2023/10/03 03:56:41;;;;;;;37.30;15.82;;;15.80;99.90;;;14.92;100.00;100685.50;6118277;23;20008;-79
2023/10/03 03:59:09;;;;;;;39.08;16.48;;;15.90;99.90;;;14.90;100.00;100674.13;6115978;23;20482;-79
2023/10/03 04:01:35;;;;;;;38.28;15.85;;;15.80;99.90;;;14.89;100.00;100674.22;6138039;23;20104;-79
2023/10/03 04:04:03;;;;;;;34.30;15.88;;;15.80;99.90;;;14.89;100.00;100661.81;6151500;23;20013;-79
2023/10/03 04:06:31;;;;;;;36.65;16.73;;;15.80;99.90;;;14.90;100.00;100657.34;6149924;23;20116;-79
2023/10/03 04:08:57;;;;;;;35.08;17.17;;;15.80;99.90;;;14.88;100.00;100659.25;6164121;23;20028;-78
2023/10/03 04:11:23;;;;;;;37.45;17.25;;;15.80;99.90;;;14.87;100.00;100650.47;6120628;22;20017;-78
2023/10/03 04:13:55;;;;;;;41.67;17.15;;;15.80;99.90;;;14.83;100.00;100645.47;6140489;23;20456;-79
2023/10/03 04:16:43;;;;;;;39.60;18.35;;;15.80;99.90;;;14.83;100.00;100635.72;6169017;23;20456;-78
2023/10/03 04:19:10;;;;;;;35.33;17.58;;;15.70;99.90;;;14.82;100.00;100633.19;6100911;23;20016;-79
2023/10/03 04:21:39;;;;;;;38.88;16.75;;;15.80;99.90;;;14.81;100.00;100632.31;6114587;23;20477;-79
2023/10/03 04:24:10;;;;;;;38.15;17.52;;;15.80;99.90;;;14.80;100.00;100627.13;6152007;23;20038;-79
2023/10/03 04:26:39;;;;;;;38.67;16.13;;;15.70;99.90;;;14.77;100.00;100628.16;6117855;23;20005;-78
2023/10/03 04:29:05;;;;;;;38.50;16.40;;;17.00;99.90;;;14.75;100.00;100619.44;6151302;23;20343;-79
2023/10/03 04:31:38;;;;;;;40.67;17.70;;;15.70;99.90;;;14.75;100.00;100622.09;6146316;23;20032;-78
2023/10/03 04:34:04;;;;;;;37.65;15.95;;;15.70;99.90;;;14.71;100.00;100618.81;6098187;23;20013;-78
2023/10/03 04:36:29;;;;;;;40.70;17.35;;;15.70;99.90;;;14.68;100.00;100604.91;6106992;23;20013;-79
2023/10/03 04:38:55;;;;;;;33.60;15.70;;;15.60;99.90;;;14.62;100.00;100600.88;6151113;23;20387;-78
2023/10/03 04:41:21;;;;;;;37.35;15.68;;;15.60;99.90;;;14.60;100.00;100605.44;6144325;23;20458;-78
2023/10/03 04:43:55;;;;;;;41.17;16.42;;;15.50;99.90;;;14.56;100.00;100599.47;6088311;23;20012;-78
2023/10/03 04:46:21;;;;;;;32.67;15.20;;;15.50;99.90;;;14.55;100.00;100595.09;6126609;23;20039;-78
2023/10/03 04:48:47;;;;;;;30.60;15.52;;;15.50;99.90;;;14.53;100.00;100586.38;6157730;23;20027;-79
2023/10/03 04:51:20;;;;;;;33.88;15.68;;;15.50;99.90;;;14.52;100.00;100581.19;6127272;23;20409;-78
2023/10/03 04:53:48;;;;;;;35.80;15.50;;;15.50;99.90;;;14.52;100.00;100573.25;6095911;23;26082;-78
2023/10/03 04:56:14;;;;;;;28.73;14.32;;;15.50;99.90;;;14.51;100.00;100574.19;6084194;23;20100;-78
2023/10/03 04:58:41;;;;;;;35.92;15.85;;;15.50;99.90;;;14.50;100.00;100565.41;6119843;23;20455;-79
2023/10/03 05:01:12;;;;;;;35.00;15.57;;;15.40;99.90;;;14.49;100.00;100553.13;6177217;23;20016;-78
2023/10/03 05:03:40;;;;;;;33.30;15.40;;;15.40;99.90;;;14.50;100.00;100556.59;6118809;23;20030;-78
2023/10/03 05:06:06;;;;;;;37.38;15.70;;;15.50;99.90;;;14.52;100.00;100557.34;6153291;23;20267;-79
2023/10/03 05:08:32;;;;;;;31.70;15.38;;;15.40;99.90;;;14.52;100.00;100554.72;6090747;23;20659;-79
2023/10/03 05:11:05;;;;;;;34.50;15.30;;;15.50;99.90;;;14.52;100.00;100550.25;6111383;23;20020;-79
2023/10/03 05:13:31;;;;;;;31.17;14.70;;;15.50;99.90;;;14.53;100.00;100551.94;6043776;23;20013;-79
2023/10/03 05:15:57;;;;;;;27.40;14.00;;;15.50;99.90;;;14.54;100.00;100547.50;6088181;23;20061;-79
2023/10/03 05:18:23;;;;;;;31.25;14.73;;;15.50;99.90;;;14.53;100.00;100538.69;6175855;23;20004;-78
2023/10/03 05:20:49;;;;;;;39.03;15.43;;;15.50;99.90;;;14.54;100.00;100527.16;6130687;23;20610;-79
2023/10/03 05:23:22;;;;;;;30.15;14.73;;;15.50;99.90;;;14.55;100.00;100507.69;6119827;23;20009;-78
2023/10/03 05:25:48;;;;;;;28.85;14.88;;;15.50;99.90;;;14.55;100.00;100496.22;6135245;23;20043;-78
2023/10/03 05:28:14;;;;;;;31.05;14.05;;;15.50;99.90;;;14.57;100.00;100481.09;6118873;23;20346;-78
2023/10/03 05:30:40;;;;;;;32.90;14.40;;;15.50;99.90;;;14.58;100.00;100469.56;6094408;23;20075;-79
2023/10/03 05:33:06;;;;;;;34.65;15.15;;;15.50;99.90;;;14.55;100.00;100470.59;6152930;23;20102;-79
2023/10/03 05:35:35;;;;;;;32.05;14.63;;;15.60;99.90;;;14.55;100.00;100459.97;6140768;23;20013;-79
2023/10/03 05:38:05;;;;;;;32.55;14.15;;;15.50;99.90;;;14.54;100.00;100460.06;6161658;23;20513;-79
2023/10/03 05:40:32;;;;;;;30.95;14.52;;;15.50;99.90;;;14.55;100.00;100449.38;6183125;22;20409;-80
2023/10/03 05:42:58;;;;;;;31.00;14.40;;;15.50;99.90;;;14.54;100.00;100442.38;6172727;23;20016;-79
2023/10/03 05:45:27;;;;;;;29.25;14.15;;;15.50;99.90;;;14.54;100.00;100428.28;6116663;23;20012;-78
2023/10/03 05:47:52;;;;;;;29.10;14.02;;;15.50;99.90;;;14.57;100.00;100426.28;6138483;23;20503;-78
2023/10/03 05:50:21;;;;;;;29.23;13.90;;;15.50;99.90;;;14.57;100.00;100425.44;6134866;23;20035;-79
2023/10/03 05:52:48;;;;;;;30.35;14.55;;;15.60;99.90;;;14.61;100.00;100420.78;6101904;23;20364;-78
2023/10/03 05:55:14;;;;;;;28.67;13.88;;;15.60;99.90;;;14.65;100.00;100412.53;6133500;23;20088;-78
2023/10/03 05:57:45;;;;;;;30.38;13.90;;;15.60;99.90;;;14.68;100.00;100414.13;6135290;23;20021;-79
2023/10/03 06:00:17;;;;;;;28.85;14.00;;;15.70;99.90;;;14.71;100.00;100412.13;6148733;23;20012;-79
2023/10/03 06:02:46;;;;;;;29.55;14.20;;;15.70;99.90;;;14.75;100.00;100410.06;6177270;23;20012;-78
2023/10/03 06:05:13;;;;;;;32.50;14.57;;;15.70;99.90;;;14.81;100.00;100401.72;6120781;23;20016;-79
2023/10/03 06:07:41;;;;;;;31.50;13.27;;;15.80;99.90;;;14.82;100.00;100402.56;6081809;23;20020;-79
2023/10/03 06:10:10;;;;;;;30.00;13.93;;;15.80;99.90;;;14.86;100.00;100385.47;6107641;23;20067;-79
2023/10/03 06:12:41;;;;;;;28.52;13.30;;;15.80;99.90;;;14.91;100.00;100378.06;6161120;23;20419;-79
2023/10/03 06:15:07;;;;;;;26.73;13.23;;;15.90;99.90;;;14.93;100.00;100384.97;6162557;23;20012;-78
2023/10/03 06:17:34;;;;;;;31.60;13.60;;;15.90;99.90;;;15.00;100.00;100387.19;6138739;23;20125;-79
2023/10/03 06:20:05;;;;;;;26.83;13.02;;;16.00;99.90;;;15.06;100.00;100378.78;6078877;23;20017;-79
2023/10/03 06:22:33;;;;;;;28.65;12.73;;;16.00;99.90;;;15.11;100.00;100377.50;6088291;23;20508;-78
2023/10/03 06:24:59;;;;;;;25.15;12.40;;;16.10;99.90;;;15.18;100.00;100378.78;6114635;23;20023;-78
2023/10/03 06:27:27;;;;;;;27.52;12.02;;;16.10;99.90;;;15.23;100.00;100382.91;6087654;23;20483;-79
2023/10/03 06:29:53;;;;;;;28.58;12.70;;;16.20;99.90;;;15.28;100.00;100378.09;6116698;23;20020;-79
2023/10/03 06:32:23;;;;;;;26.73;13.02;;;16.20;99.90;;;15.34;100.00;100375.03;6087791;23;20024;-79
2023/10/03 06:34:50;;;;;;;29.45;12.85;;;16.30;99.90;;;15.36;100.00;100358.03;6143980;23;20040;-78
2023/10/03 06:37:16;;;;;;;26.42;12.82;;;16.30;99.90;;;15.37;100.00;100354.41;6164726;23;20098;-79
2023/10/03 06:39:42;;;;;;;24.13;12.38;;;16.30;99.90;;;15.43;100.00;100357.59;6162763;23;20118;-78
2023/10/03 06:42:07;;;;;;;28.42;12.45;;;16.40;99.90;;;15.47;100.00;100357.25;6138178;23;20071;-78
2023/10/03 06:44:36;;;;;;;33.08;12.63;;;16.50;99.90;;;15.53;100.00;100354.16;6132785;23;20029;-78
2023/10/03 06:47:04;;;;;;;25.55;12.10;;;16.50;99.90;;;15.62;100.00;100352.63;6112500;23;20017;-79
2023/10/03 06:49:31;;;;;;;27.42;13.02;;;16.50;99.90;;;15.69;100.00;100353.03;6099444;23;20454;-79
2023/10/03 06:52:00;;;;;;;27.80;13.48;;;16.60;99.90;;;15.78;100.00;100361.16;6126185;23;20020;-78
2023/10/03 06:54:33;;;;;;;34.03;13.35;;;16.70;99.90;;;15.86;100.00;100354.47;6149756;23;20069;-78
2023/10/03 06:56:59;;;;;;;28.05;12.13;;;16.70;99.90;;;15.94;100.00;100342.28;6133513;23;20358;-78
2023/10/03 06:59:25;;;;;;;24.52;12.40;;;16.80;99.90;;;15.99;100.00;100333.97;6108410;23;20024;-78
2023/10/03 07:01:50;;;;;;;29.02;12.35;;;16.90;99.90;;;16.07;100.00;100330.72;6102582;23;20020;-78
2023/10/03 07:04:16;;;;;;;27.58;13.07;;;17.00;99.90;;;16.13;100.00;100322.31;6124376;23;20008;-79
2023/10/03 07:06:43;;;;;;;26.58;11.35;;;17.00;99.90;;;16.20;100.00;100320.88;6122232;23;20009;-78
2023/10/03 07:09:10;;;;;;;19.60;10.48;;;17.00;99.90;;;16.27;100.00;100305.31;6146527;23;20078;-78
2023/10/03 07:11:38;;;;;;;31.67;11.38;;;17.10;99.90;;;16.29;100.00;100298.91;6083695;23;20013;-79
2023/10/03 07:14:04;;;;;;;25.60;11.52;;;17.20;99.90;;;16.38;100.00;100308.00;6100541;23;20012;-78
2023/10/03 07:16:56;;;;;;;26.60;11.10;;;17.20;99.90;;;16.47;100.00;100301.13;6175592;23;20571;-78
2023/10/03 07:19:24;;;;;;;23.30;11.48;;;17.40;99.90;;;16.54;100.00;100289.91;6102521;23;20598;-78
2023/10/03 07:21:52;;;;;;;28.30;11.70;;;17.40;99.90;;;16.59;100.00;100287.72;6151209;23;20100;-78
2023/10/03 07:24:20;;;;;;;27.42;12.27;;;17.40;99.90;;;16.65;100.00;100282.88;6110216;23;20016;-78
2023/10/03 07:26:48;;;;;;;24.83;10.88;;;17.50;99.90;;;16.70;100.00;100288.69;6184116;23;20020;-78
2023/10/03 07:29:14;;;;;;;24.58;11.80;;;17.50;99.90;;;16.71;100.00;100283.22;6122564;23;20706;-78
2023/10/03 07:31:40;;;;;;;24.83;11.07;;;17.60;99.90;;;16.75;100.00;100271.38;6123650;23;20017;-79
2023/10/03 07:34:07;;;;;;;24.95;10.45;;;17.60;99.90;;;16.79;100.00;100248.91;6171589;23;20008;-78
2023/10/03 07:36:33;;;;;;;21.42;10.65;;;17.60;99.90;;;16.80;100.00;100245.31;6165129;23;20012;-79
2023/10/03 07:38:59;;;;;;;27.88;11.02;;;17.70;99.90;;;16.89;100.00;100234.88;6151070;23;20116;-78
2023/10/03 07:41:31;;;;;;;29.75;10.73;;;17.80;99.90;;;17.03;100.00;100250.59;6146103;23;20015;-78
2023/10/03 07:43:58;;;;;;;27.30;12.32;;;17.90;99.90;;;17.17;100.00;100262.75;6150196;23;20414;-78
2023/10/03 07:46:25;;;;;;;26.10;11.52;;;18.00;99.90;;;17.34;100.00;100275.53;6186078;23;20013;-78
2023/10/03 07:48:52;;;;;;;32.13;12.00;;;18.10;99.90;;;17.43;100.00;100285.41;6128939;23;20017;-78
2023/10/03 07:51:29;;;;;;;23.35;11.32;;;18.30;99.90;;;17.56;98.91;100279.09;6131885;23;20013;-78
2023/10/03 07:54:01;;;;;;;27.55;12.18;;;18.40;99.90;;;17.68;98.36;100269.22;6160032;23;20023;-78
2023/10/03 07:56:33;;;;;;;27.63;12.25;;;18.50;99.90;;;17.76;97.38;100272.94;6132027;23;20080;-78
2023/10/03 07:59:05;;;;;;;25.67;11.98;;;18.60;99.90;;;17.89;96.97;100263.94;6132465;23;20470;-78
2023/10/03 08:01:32;;;;;;;23.90;11.02;;;18.70;99.90;;;18.00;96.25;100266.53;6129571;23;20345;-78
2023/10/03 08:03:58;;;;;;;25.88;11.82;;;18.80;99.90;;;18.11;95.16;100253.13;6137275;23;20016;-78
2023/10/03 08:06:33;;;;;;;28.42;12.43;;;18.90;99.90;;;18.21;93.98;100254.03;6157399;23;20012;-78
2023/10/03 08:09:00;;;;;;;26.98;12.13;;;19.00;99.90;;;18.33;92.92;100251.28;6086604;23;20052;-78
2023/10/03 08:11:30;;;;;;;31.83;13.68;;;19.10;99.90;;;18.41;91.84;100248.81;6113476;23;20437;-78
2023/10/03 08:14:02;;;;;;;30.70;12.77;;;19.20;99.90;;;18.53;90.51;100258.41;6110698;23;20066;-78
2023/10/03 08:16:34;;;;;;;32.03;13.45;;;19.30;99.90;;;18.68;88.74;100260.69;6152041;23;20405;-79
2023/10/03 08:19:02;;;;;;;26.77;12.45;;;19.50;99.90;;;18.80;87.87;100260.47;6155362;23;20020;-80
2023/10/03 08:21:29;;;;;;;29.48;13.02;;;19.60;99.90;;;18.96;85.80;100264.44;6125865;23;20220;-79
2023/10/03 08:23:56;;;;;;;33.38;13.70;;;19.70;99.90;;;19.06;84.71;100258.16;6136758;23;20040;-78
2023/10/03 08:26:25;;;;;;;33.65;13.80;;;19.90;99.90;;;19.22;83.78;100246.09;6147270;23;20023;-78
2023/10/03 08:29:04;;;;;;;28.15;13.40;;;20.00;99.90;;;19.43;83.25;100249.47;6119943;23;20375;-78
2023/10/03 08:31:31;;;;;;;31.77;13.60;;;20.30;99.90;;;19.67;82.87;100232.19;6150135;23;20084;-79
2023/10/03 08:34:00;;;;;;;27.85;13.38;;;20.50;99.90;;;19.91;81.21;100229.09;6126394;23;20028;-78
2023/10/03 08:36:32;;;;;;;35.05;13.98;;;20.70;99.90;;;20.17;80.22;100221.31;6134018;23;20312;-78
2023/10/03 08:39:16;;;;;;;37.47;14.55;;;20.90;99.90;;;20.36;77.83;100227.56;6163279;23;20020;-78
2023/10/03 08:41:53;;;;;;;32.70;13.82;;;21.10;99.90;;;20.53;77.80;100232.13;6109812;23;20021;-78
2023/10/03 08:44:24;;;;;;;33.72;14.38;;;21.30;99.90;;;20.63;76.11;100238.31;6153981;23;20020;-79
2023/10/03 08:46:55;;;;;;;35.35;15.85;;;21.30;99.90;;;20.63;74.51;100238.31;6107419;23;20034;-79
2023/10/03 08:49:38;;;;;;;37.65;14.77;;;21.40;99.90;;;20.69;74.37;100235.03;6133738;23;20013;-79
2023/10/03 08:52:07;;;;;;;33.50;14.85;;;21.50;99.90;;;20.78;74.37;100232.47;6107374;23;20431;-79
2023/10/03 08:54:37;;;;;;;35.75;14.60;;;21.50;99.90;;;20.80;73.47;100239.34;6150256;23;20009;-78
2023/10/03 08:57:04;;;;;;;34.50;15.20;;;21.60;99.90;;;20.80;73.64;100233.13;6115393;23;20020;-78
2023/10/03 08:59:33;;;;;;;32.80;14.38;;;21.50;99.90;;;20.69;72.63;100221.66;6106067;23;20017;-78
2023/10/03 09:02:09;;;;;;;33.55;13.80;;;21.50;99.90;;;20.63;73.08;100216.91;6131491;23;20052;-78
2023/10/03 09:04:42;;;;;;;41.25;15.75;;;21.40;99.90;;;20.49;72.69;100204.81;6113427;23;20063;-79
2023/10/03 09:07:11;;;;;;;31.77;14.38;;;21.30;99.90;;;20.46;73.04;100204.28;6150894;23;20526;-78
2023/10/03 09:09:41;;;;;;;40.38;15.65;;;21.30;99.90;;;20.41;73.07;100193.19;6179684;23;20367;-78
2023/10/03 09:12:10;;;;;;;34.42;14.65;;;21.20;99.90;;;20.35;72.37;100191.97;6114035;23;20016;-79
2023/10/03 09:14:42;;;;;;;36.97;15.50;;;21.10;99.90;;;20.32;72.59;100197.59;6133032;23;20028;-78
2023/10/03 09:17:20;;;;;;;36.25;14.68;;;21.20;99.90;;;20.38;72.87;100194.31;6129214;23;20423;-79
2023/10/03 09:19:52;;;;;;;34.65;14.60;;;21.20;99.90;;;20.43;73.45;100191.19;6112051;23;20447;-78
2023/10/03 09:22:31;;;;;;;34.47;14.13;;;21.20;99.90;;;20.42;72.70;100195.72;6137347;23;20525;-78
2023/10/03 09:24:57;;;;;;;39.72;15.23;;;21.20;99.90;;;20.48;73.31;100202.31;6159698;23;20020;-79
2023/10/03 09:27:30;;;;;;;39.15;14.90;;;21.30;99.90;;;20.53;72.27;100180.47;6139005;23;20111;-79
2023/10/03 09:30:08;;;;;;;37.72;14.93;;;21.30;99.90;;;20.55;71.61;100191.88;6164048;23;20009;-79
2023/10/03 09:32:40;;;;;;;31.27;14.00;;;21.30;99.90;;;20.58;71.44;100187.09;6179219;23;20015;-79
2023/10/03 09:35:13;;;;;;;37.00;14.57;;;21.40;99.90;;;20.58;70.78;100188.91;6153393;23;20012;-78
2023/10/03 09:37:48;;;;;;;33.13;14.40;;;21.40;99.90;;;20.59;71.35;100186.09;6181445;23;20078;-79
2023/10/03 09:40:21;;;;;;;34.97;14.35;;;21.40;99.90;;;20.62;71.27;100188.47;6146430;23;20103;-78
2023/10/03 09:42:48;;;;;;;30.17;14.15;;;21.40;99.90;;;20.60;71.13;100187.75;6129581;23;20525;-79
2023/10/03 09:45:27;;;;;;;32.80;14.18;;;21.40;99.90;;;20.65;70.95;100182.00;6154708;23;20016;-78
2023/10/03 09:48:06;;;;;;;33.88;13.10;;;21.40;99.90;;;20.71;70.87;100188.56;6178321;23;20028;-79
2023/10/03 09:50:35;;;;;;;41.20;15.00;;;21.50;99.90;;;20.78;70.27;100185.16;6139338;23;20689;-79
2023/10/03 09:53:02;;;;;;;33.60;13.50;;;21.60;99.90;;;20.85;69.95;100180.03;6182657;23;20027;-79
2023/10/03 09:55:46;;;;;;;37.30;14.23;;;21.70;99.90;;;20.99;70.16;100171.47;6129405;23;20012;-80
2023/10/03 09:58:24;;;;;;;33.47;13.32;;;21.80;99.90;;;21.07;69.01;100163.50;6186739;23;20047;-79
2023/10/03 10:01:00;;;;;;;33.67;13.60;;;21.90;99.90;;;21.17;69.03;100163.44;6163792;23;20017;-79
2023/10/03 10:03:37;;;;;;;38.00;14.27;;;22.00;99.90;;;21.26;68.96;100140.25;6148837;23;20088;-78
2023/10/03 10:06:12;;;;;;;34.88;13.38;;;22.10;99.90;;;21.36;69.00;100141.03;6167624;23;20089;-80
2023/10/03 10:09:01;;;;;;;32.15;13.65;;;22.20;99.90;;;21.44;68.42;100154.47;6204058;23;20017;-80